Time;durP1;ratioP1;P1;durP2;ratioP2;P2;SDS_P1;SDS_P2;PMS_P1;PMS_P2;Temp;Humidity;BMP_temperature;BMP_pressure;BME280_temperature;BME280_humidity;BME280_pressure;Samples;Min_cycle;Max_cycle;Signal;HPM_P1;HPM_P2
2021/04/10 00:01:40;;;;;;;7.18;5.55;;;11.30;99.90;;;;;;4158064;28;20132;-67
2021/04/10 00:03:40;;;;;;;9.32;5.90;;;11.30;99.90;;;;;;4173131;28;20128;-67
2021/04/10 00:05:41;;;;;;;8.45;6.18;;;11.30;99.90;;;;;;4159952;28;20050;-67
2021/04/10 00:07:42;;;;;;;8.48;6.20;;;11.30;99.90;;;;;;4159610;28;20152;-68
2021/04/10 00:09:42;;;;;;;8.15;5.88;;;11.30;99.90;;;;;;4175857;28;20040;-67
2021/04/10 00:11:43;;;;;;;8.65;6.47;;;11.30;99.90;;;;;;4157783;28;20065;-68
2021/04/10 00:13:44;;;;;;;8.77;5.55;;;11.30;99.90;;;;;;4162208;28;20037;-68
2021/04/10 00:15:44;;;;;;;10.75;6.65;;;11.30;99.90;;;;;;4158082;28;20053;-68
2021/04/10 00:17:45;;;;;;;9.63;7.03;;;11.30;99.90;;;;;;4165036;28;20477;-68
2021/04/10 00:19:46;;;;;;;9.13;6.45;;;11.20;99.90;;;;;;4159967;28;20107;-67
2021/04/10 00:21:47;;;;;;;8.02;5.88;;;11.20;99.90;;;;;;4159526;28;20076;-67
2021/04/10 00:23:47;;;;;;;7.78;6.20;;;11.20;99.90;;;;;;4164126;28;20062;-67
2021/04/10 00:25:48;;;;;;;8.40;5.93;;;11.20;99.90;;;;;;4159099;28;20477;-68
2021/04/10 00:27:49;;;;;;;8.68;6.22;;;11.20;99.90;;;;;;4190388;28;20179;-67
2021/04/10 00:29:49;;;;;;;8.70;6.60;;;11.20;99.90;;;;;;4157591;28;20549;-67
2021/04/10 00:31:50;;;;;;;10.70;6.80;;;11.20;99.90;;;;;;4158514;28;20037;-67
2021/04/10 00:33:50;;;;;;;8.57;6.63;;;11.10;99.90;;;;;;4159432;28;20045;-68
2021/04/10 00:35:51;;;;;;;8.40;6.38;;;11.10;99.90;;;;;;4158144;28;20493;-68
2021/04/10 00:37:52;;;;;;;8.65;6.20;;;11.00;99.90;;;;;;4159678;28;20041;-68
2021/04/10 00:39:52;;;;;;;8.65;6.90;;;11.00;99.90;;;;;;4159236;28;20037;-68
2021/04/10 00:41:53;;;;;;;10.00;7.05;;;10.90;99.90;;;;;;4158406;28;20108;-68
2021/04/10 00:43:53;;;;;;;10.38;6.70;;;10.90;99.90;;;;;;4158265;28;20037;-67
2021/04/10 00:45:54;;;;;;;11.20;7.50;;;10.90;99.90;;;;;;4159053;28;20042;-67
2021/04/10 00:47:55;;;;;;;10.10;7.15;;;10.90;99.90;;;;;;4174375;28;20512;-67
2021/04/10 00:49:56;;;;;;;10.85;7.40;;;10.90;99.90;;;;;;4158330;28;20029;-67
2021/04/10 00:51:56;;;;;;;11.05;7.65;;;10.90;99.90;;;;;;4159239;28;20033;-67
2021/04/10 00:53:57;;;;;;;10.68;6.75;;;10.90;99.90;;;;;;4159003;28;20037;-67
2021/04/10 00:56:02;;;;;;;11.60;7.78;;;10.90;99.90;;;;;;4159260;28;20045;-67
2021/04/10 00:58:03;;;;;;;11.57;8.02;;;11.00;99.90;;;;;;4159361;28;20622;-67
2021/04/10 01:00:06;;;;;;;11.52;8.13;;;11.00;99.90;;;;;;4157502;28;20030;-68
2021/04/10 01:02:08;;;;;;;12.00;7.95;;;11.00;99.90;;;;;;4157419;28;20091;-67
2021/04/10 01:04:08;;;;;;;11.23;7.37;;;10.90;99.90;;;;;;4157461;28;20440;-67
2021/04/10 01:06:09;;;;;;;10.18;7.50;;;11.00;99.90;;;;;;4159180;28;20356;-67
2021/04/10 01:08:10;;;;;;;11.43;7.70;;;11.00;99.90;;;;;;4158308;28;20041;-68
2021/04/10 01:10:12;;;;;;;12.00;8.30;;;10.90;99.90;;;;;;4158355;28;20038;-67
2021/04/10 01:13:10;;;;;;;8.65;6.82;;;10.90;99.90;;;;;;4158546;28;20041;-68
2021/04/10 01:15:23;;;;;;;10.57;7.22;;;11.00;99.90;;;;;;4136609;28;20094;-67
2021/04/10 01:17:28;;;;;;;10.05;7.03;;;11.00;99.90;;;;;;4139533;28;20041;-69
2021/04/10 01:19:44;;;;;;;9.50;6.70;;;10.90;99.90;;;;;;4129400;28;20045;-67
2021/04/10 01:22:00;;;;;;;8.57;6.32;;;11.00;99.90;;;;;;4158589;28;20117;-67
2021/04/10 01:24:50;;;;;;;8.98;6.82;;;10.90;99.90;;;;;;4173796;28;20039;-67
2021/04/10 01:27:17;;;;;;;8.77;6.35;;;11.00;99.90;;;;;;4154546;28;20049;-67
2021/04/10 01:29:21;;;;;;;10.57;6.25;;;10.90;99.90;;;;;;4188823;28;20060;-67
2021/04/10 01:31:27;;;;;;;8.00;6.32;;;10.90;99.90;;;;;;4156446;28;20114;-67
2021/04/10 01:33:32;;;;;;;8.00;5.97;;;10.90;99.90;;;;;;4157406;28;20136;-67
2021/04/10 01:35:40;;;;;;;8.90;6.35;;;10.90;99.90;;;;;;4156342;28;20116;-68
2021/04/10 01:38:02;;;;;;;8.55;6.63;;;10.80;99.90;;;;;;4158827;28;20128;-68
2021/04/10 01:40:05;;;;;;;7.68;6.18;;;10.80;99.90;;;;;;4149172;28;20045;-67
2021/04/10 01:42:07;;;;;;;;;;;10.80;99.90;;;;;;4157935;28;20426;-67
2021/04/10 01:44:08;;;;;;;8.63;6.63;;;10.80;99.90;;;;;;4158673;28;20394;-68
2021/04/10 01:46:10;;;;;;;8.55;6.38;;;10.80;99.90;;;;;;4159165;28;20562;-68
2021/04/10 01:48:14;;;;;;;9.30;6.40;;;10.80;99.90;;;;;;4162611;28;20041;-67
2021/04/10 01:50:15;;;;;;;8.73;6.55;;;10.80;99.90;;;;;;4156411;28;20025;-67
2021/04/10 01:52:18;;;;;;;12.15;7.05;;;10.80;99.90;;;;;;4160618;28;20041;-67
2021/04/10 01:54:19;;;;;;;;;;;10.80;99.90;;;;;;4158734;28;20152;-67
2021/04/10 01:56:20;;;;;;;7.53;5.90;;;10.80;99.90;;;;;;4163381;28;19917;-67
2021/04/10 01:58:21;;;;;;;8.25;6.75;;;10.70;99.90;;;;;;4169071;28;20037;-67
2021/04/10 02:00:25;;;;;;;10.00;6.85;;;10.70;99.90;;;;;;4161539;28;20386;-67
2021/04/10 02:02:27;;;;;;;11.35;7.88;;;10.70;99.90;;;;;;4161473;28;20064;-68
2021/04/10 02:04:32;;;;;;;9.95;7.25;;;10.60;99.90;;;;;;4162256;28;20045;-68
2021/04/10 02:06:33;;;;;;;12.50;8.05;;;10.60;99.90;;;;;;4163360;28;20040;-68
2021/04/10 02:08:35;;;;;;;8.95;6.75;;;10.50;99.90;;;;;;4161909;28;20051;-67
2021/04/10 02:10:36;;;;;;;10.25;6.88;;;10.50;99.90;;;;;;4161331;28;22479;-68
2021/04/10 02:12:38;;;;;;;9.00;6.63;;;10.50;99.90;;;;;;4162810;28;20039;-67
2021/04/10 02:14:39;;;;;;;10.40;6.85;;;10.40;99.90;;;;;;4161286;28;20381;-67
2021/04/10 02:16:41;;;;;;;11.10;7.90;;;10.40;99.90;;;;;;4158422;28;20126;-68
2021/04/10 02:18:42;;;;;;;13.93;8.27;;;10.40;99.90;;;;;;4157566;28;20054;-67
2021/04/10 02:20:43;;;;;;;11.15;8.63;;;10.30;99.90;;;;;;4161487;28;20045;-68
2021/04/10 02:22:49;;;;;;;12.23;8.93;;;10.30;99.90;;;;;;4159565;28;20120;-68
2021/04/10 02:24:50;;;;;;;14.85;9.25;;;10.20;99.90;;;;;;4192145;28;20051;-67
2021/04/10 02:26:51;;;;;;;11.75;8.02;;;10.20;99.90;;;;;;4160582;28;20069;-67
2021/04/10 02:28:54;;;;;;;10.80;7.60;;;10.10;99.90;;;;;;4159495;28;20044;-67
2021/04/10 02:30:57;;;;;;;12.32;8.52;;;10.10;99.90;;;;;;4162300;28;20025;-67
2021/04/10 02:33:04;;;;;;;10.82;7.90;;;10.00;99.90;;;;;;4161388;28;20611;-68
2021/04/10 02:35:11;;;;;;;11.18;7.97;;;10.00;99.90;;;;;;4172104;28;20124;-68
2021/04/10 02:37:12;;;;;;;12.35;7.93;;;10.00;99.90;;;;;;4173851;28;20037;-67
2021/04/10 02:39:14;;;;;;;12.00;8.45;;;10.00;99.90;;;;;;4161816;28;20092;-68
2021/04/10 02:41:26;;;;;;;11.63;8.20;;;9.90;99.90;;;;;;4159820;28;20042;-67
2021/04/10 02:43:29;;;;;;;11.40;8.43;;;9.90;99.90;;;;;;4160674;28;20037;-68
2021/04/10 02:45:30;;;;;;;15.32;8.50;;;9.90;99.90;;;;;;4161674;28;20036;-68
2021/04/10 02:47:35;;;;;;;13.00;8.98;;;9.80;99.90;;;;;;4159969;28;20037;-68
2021/04/10 02:49:39;;;;;;;13.40;9.20;;;9.80;99.90;;;;;;4160717;28;20472;-68
2021/04/10 02:51:48;;;;;;;12.45;9.48;;;9.80;99.90;;;;;;4165157;28;20045;-68
2021/04/10 02:53:52;;;;;;;14.10;9.70;;;9.80;99.90;;;;;;4166968;28;20136;-67
2021/04/10 02:55:56;;;;;;;15.10;9.27;;;9.70;99.90;;;;;;4159994;28;20038;-68
2021/04/10 02:58:06;;;;;;;16.42;9.43;;;9.70;99.90;;;;;;4160056;28;20033;-67
2021/04/10 03:00:07;;;;;;;14.05;9.35;;;9.70;99.90;;;;;;4170846;28;20044;-67
2021/04/10 03:02:10;;;;;;;17.83;9.18;;;9.70;99.90;;;;;;4159076;28;20654;-67
2021/04/10 03:04:12;;;;;;;;;;;9.60;99.90;;;;;;4165872;28;20045;-67
2021/04/10 03:06:14;;;;;;;16.75;9.80;;;9.70;99.90;;;;;;4160053;28;19917;-67
2021/04/10 03:08:24;;;;;;;19.33;10.77;;;9.60;99.90;;;;;;4156318;28;20393;-67
2021/04/10 03:10:25;;;;;;;15.40;10.10;;;9.60;99.90;;;;;;4156044;28;20055;-67
2021/04/10 03:12:26;;;;;;;15.48;10.10;;;9.60;99.90;;;;;;4159148;28;20032;-67
2021/04/10 03:14:27;;;;;;;14.90;10.65;;;9.60;99.90;;;;;;4158831;28;20042;-67
2021/04/10 03:16:32;;;;;;;17.63;11.50;;;9.60;99.90;;;;;;4158486;28;20038;-67
2021/04/10 03:18:35;;;;;;;16.77;11.60;;;9.60;99.90;;;;;;4154607;28;20052;-67
2021/04/10 03:20:36;;;;;;;15.23;10.25;;;9.60;99.90;;;;;;4159125;28;20083;-67
2021/04/10 03:22:37;;;;;;;16.08;10.85;;;9.60;99.90;;;;;;4159509;28;20033;-67
2021/04/10 03:24:37;;;;;;;17.05;10.98;;;9.60;99.90;;;;;;4158123;28;20484;-67
2021/04/10 03:26:39;;;;;;;15.73;10.15;;;9.60;99.90;;;;;;4160760;28;20038;-68
2021/04/10 03:28:41;;;;;;;19.52;12.05;;;9.60;99.90;;;;;;4159311;28;20516;-68
2021/04/10 03:30:42;;;;;;;17.90;11.23;;;9.60;99.90;;;;;;4160072;28;20045;-68
2021/04/10 03:32:45;;;;;;;16.75;11.30;;;9.60;99.90;;;;;;4169752;28;20041;-68
2021/04/10 03:34:45;;;;;;;20.70;12.13;;;9.60;99.90;;;;;;4160598;28;20032;-68
2021/04/10 03:36:46;;;;;;;17.48;11.90;;;9.60;99.90;;;;;;4160078;28;20108;-67
2021/04/10 03:38:47;;;;;;;18.33;10.65;;;9.60;99.90;;;;;;4159234;28;20037;-68
2021/04/10 03:40:47;;;;;;;16.88;11.35;;;9.50;99.90;;;;;;4163170;28;20136;-67
2021/04/10 03:42:48;;;;;;;20.50;11.65;;;9.50;99.90;;;;;;4164367;28;20036;-67
2021/04/10 03:44:49;;;;;;;16.08;11.25;;;9.60;99.90;;;;;;4159466;28;20470;-68
2021/04/10 03:46:50;;;;;;;14.75;10.23;;;9.60;99.90;;;;;;4159287;28;20063;-67
2021/04/10 03:48:51;;;;;;;17.67;10.90;;;9.60;99.90;;;;;;4159478;28;20658;-68
2021/04/10 03:50:52;;;;;;;18.85;11.55;;;9.60;99.90;;;;;;4160885;28;20037;-68
2021/04/10 03:52:53;;;;;;;17.25;10.85;;;9.60;99.90;;;;;;4159664;28;20045;-67
2021/04/10 03:54:53;;;;;;;16.73;10.60;;;9.60;99.90;;;;;;4172824;28;20037;-67
2021/04/10 03:56:54;;;;;;;17.40;11.35;;;9.60;99.90;;;;;;4157944;28;20036;-68
2021/04/10 03:58:54;;;;;;;16.83;11.50;;;9.60;99.90;;;;;;4159294;28;20034;-67
2021/04/10 04:00:55;;;;;;;18.67;11.80;;;9.60;99.90;;;;;;4157993;28;20485;-68
2021/04/10 04:02:57;;;;;;;17.63;10.75;;;9.60;99.90;;;;;;4161975;28;20034;-67
2021/04/10 04:04:58;;;;;;;19.02;11.57;;;9.60;99.90;;;;;;4158793;28;20034;-67
2021/04/10 04:06:59;;;;;;;17.20;12.15;;;9.50;99.90;;;;;;4159086;28;20046;-68
2021/04/10 04:09:00;;;;;;;18.48;11.88;;;9.50;99.90;;;;;;4159499;28;20492;-68
2021/04/10 04:11:00;;;;;;;21.85;12.07;;;9.50;99.90;;;;;;4159464;28;20037;-67
2021/04/10 04:13:01;;;;;;;16.70;12.27;;;9.40;99.90;;;;;;4180994;28;20051;-68
2021/04/10 04:15:03;;;;;;;18.50;11.32;;;9.40;99.90;;;;;;4158540;28;20396;-67
2021/04/10 04:17:06;;;;;;;20.17;12.50;;;9.40;99.90;;;;;;4173491;28;20095;-67
2021/04/10 04:19:06;;;;;;;14.90;10.93;;;9.40;99.90;;;;;;4163220;28;20091;-68
2021/04/10 04:21:07;;;;;;;20.88;10.93;;;9.40;99.90;;;;;;4159571;28;20490;-68
2021/04/10 04:23:07;;;;;;;16.83;10.88;;;9.40;99.90;;;;;;4158980;28;20033;-67
2021/04/10 04:25:09;;;;;;;17.25;10.65;;;9.40;99.90;;;;;;4159305;28;20038;-68
2021/04/10 04:27:10;;;;;;;18.08;11.63;;;9.40;99.90;;;;;;4150860;28;20053;-67
2021/04/10 04:29:11;;;;;;;15.73;10.80;;;9.30;99.90;;;;;;4157234;28;20053;-67
2021/04/10 04:31:11;;;;;;;17.83;11.70;;;9.40;99.90;;;;;;4157732;28;20088;-67
2021/04/10 04:33:12;;;;;;;18.77;12.32;;;9.40;99.90;;;;;;4151447;28;20052;-68
2021/04/10 04:35:12;;;;;;;18.85;12.35;;;9.30;99.90;;;;;;4166037;28;20030;-67
2021/04/10 04:37:13;;;;;;;15.10;10.70;;;9.30;99.90;;;;;;4159352;28;20042;-68
2021/04/10 04:39:14;;;;;;;19.48;11.25;;;9.30;99.90;;;;;;4159726;28;20648;-67
2021/04/10 04:41:14;;;;;;;19.00;11.68;;;9.30;99.90;;;;;;4158998;28;20038;-67
2021/04/10 04:43:15;;;;;;;19.45;10.98;;;9.30;99.90;;;;;;4158287;28;20040;-68
2021/04/10 04:45:15;;;;;;;19.52;11.45;;;9.30;99.90;;;;;;4157587;28;20047;-67
2021/04/10 04:47:16;;;;;;;15.88;10.82;;;9.30;99.90;;;;;;4158770;28;20048;-67
2021/04/10 04:49:17;;;;;;;18.63;11.20;;;9.30;99.90;;;;;;4156446;28;20033;-68
2021/04/10 04:51:22;;;;;;;18.92;12.07;;;9.30;99.90;;;;;;4159288;28;20192;-68
2021/04/10 04:53:22;;;;;;;20.15;11.00;;;9.30;99.90;;;;;;4157996;28;20033;-68
2021/04/10 04:55:23;;;;;;;17.80;10.77;;;9.20;99.90;;;;;;4159316;28;20726;-68
2021/04/10 04:57:24;;;;;;;16.63;11.15;;;9.20;99.90;;;;;;4159427;28;20034;-68
2021/04/10 04:59:24;;;;;;;22.65;11.38;;;9.10;99.90;;;;;;4159590;28;20041;-67
2021/04/10 05:01:25;;;;;;;18.30;12.18;;;9.10;99.90;;;;;;4158388;28;20045;-67
2021/04/10 05:03:25;;;;;;;18.88;12.10;;;9.00;99.90;;;;;;4156334;28;20137;-67
2021/04/10 05:05:26;;;;;;;16.48;12.10;;;9.00;99.90;;;;;;4165327;28;20034;-67
2021/04/10 05:07:26;;;;;;;19.92;12.27;;;8.90;99.90;;;;;;4159864;28;20048;-67
2021/04/10 05:09:27;;;;;;;15.40;11.65;;;8.90;99.90;;;;;;4159173;28;20448;-67
2021/04/10 05:11:28;;;;;;;16.27;10.98;;;8.90;99.90;;;;;;4159653;28;20064;-67
2021/04/10 05:13:28;;;;;;;20.55;11.88;;;8.90;99.90;;;;;;4162148;28;20049;-68
2021/04/10 05:15:29;;;;;;;19.40;12.05;;;8.90;99.90;;;;;;4164108;28;20033;-67
2021/04/10 05:17:29;;;;;;;17.70;11.07;;;8.90;99.90;;;;;;4155982;28;20029;-67
2021/04/10 05:19:30;;;;;;;17.48;10.82;;;8.90;99.90;;;;;;4157749;28;20041;-68
2021/04/10 05:21:31;;;;;;;19.45;11.52;;;8.90;99.90;;;;;;4171978;28;20037;-67
2021/04/10 05:23:31;;;;;;;15.65;10.15;;;8.80;99.90;;;;;;4149659;28;20033;-67
2021/04/10 05:25:33;;;;;;;21.27;11.20;;;8.80;99.90;;;;;;4157423;28;20540;-67
2021/04/10 05:27:33;;;;;;;17.98;11.32;;;8.80;99.90;;;;;;4159269;28;20103;-67
2021/04/10 05:29:34;;;;;;;17.15;10.80;;;8.80;99.90;;;;;;4157299;28;20045;-68
2021/04/10 05:31:34;;;;;;;16.55;11.05;;;8.80;99.90;;;;;;4155457;28;20190;-67
2021/04/10 05:33:35;;;;;;;14.38;10.23;;;8.80;99.90;;;;;;4156081;28;20088;-68
2021/04/10 05:35:36;;;;;;;14.98;10.13;;;8.80;99.90;;;;;;4133405;28;20041;-67
2021/04/10 05:37:37;;;;;;;15.23;10.55;;;8.80;99.90;;;;;;4155252;28;20030;-68
2021/04/10 05:39:39;;;;;;;16.73;10.57;;;8.80;99.90;;;;;;4158662;28;20048;-68
2021/04/10 05:41:39;;;;;;;17.45;12.13;;;8.80;99.90;;;;;;4156559;28;20029;-67
2021/04/10 05:43:40;;;;;;;19.17;11.05;;;8.80;99.90;;;;;;4154137;28;20059;-68
2021/04/10 05:45:41;;;;;;;17.15;11.10;;;8.80;99.90;;;;;;4159347;28;20388;-68
2021/04/10 05:47:41;;;;;;;15.27;11.40;;;8.70;99.90;;;;;;4163466;28;20045;-68
2021/04/10 05:49:42;;;;;;;21.92;12.27;;;8.70;99.90;;;;;;4159847;28;20057;-68
2021/04/10 05:51:43;;;;;;;15.77;11.45;;;8.60;99.90;;;;;;4173663;28;20060;-67
2021/04/10 05:53:45;;;;;;;15.30;10.82;;;8.60;99.90;;;;;;4159318;28;20037;-68
2021/04/10 05:55:45;;;;;;;17.20;10.60;;;8.60;99.90;;;;;;4159081;28;20091;-68
2021/04/10 05:57:46;;;;;;;16.85;10.25;;;8.60;99.90;;;;;;4158662;28;20091;-68
2021/04/10 05:59:46;;;;;;;16.63;11.52;;;8.60;99.90;;;;;;4158611;28;20057;-68
2021/04/10 06:01:47;;;;;;;16.83;12.32;;;8.60;99.90;;;;;;4167458;28;20041;-68
2021/04/10 06:03:48;;;;;;;17.80;11.07;;;8.60;99.90;;;;;;4173775;28;20408;-67
2021/04/10 06:05:49;;;;;;;15.75;10.15;;;8.70;99.90;;;;;;4159377;28;20053;-68
2021/04/10 06:07:50;;;;;;;18.20;11.07;;;8.70;99.90;;;;;;4159170;28;20045;-67
2021/04/10 06:09:51;;;;;;;19.33;11.68;;;8.70;99.90;;;;;;4173627;28;20507;-67
2021/04/10 06:11:51;;;;;;;17.45;11.45;;;8.70;99.90;;;;;;4159912;28;20045;-68
2021/04/10 06:13:52;;;;;;;17.08;10.05;;;8.70;99.90;;;;;;4158315;28;20052;-68
2021/04/10 06:15:52;;;;;;;15.65;10.98;;;8.80;99.90;;;;;;4158903;28;20507;-68
2021/04/10 06:17:53;;;;;;;17.55;11.02;;;8.80;99.90;;;;;;4158415;28;20504;-68
2021/04/10 06:19:54;;;;;;;15.43;10.23;;;8.80;99.90;;;;;;4159034;28;20733;-68
2021/04/10 06:21:54;;;;;;;15.98;11.10;;;8.80;99.90;;;;;;4173694;28;20524;-68
2021/04/10 06:23:55;;;;;;;15.00;10.75;;;8.80;99.90;;;;;;4158975;28;20033;-69
2021/04/10 06:25:55;;;;;;;17.60;11.35;;;8.80;99.90;;;;;;4157318;28;20034;-68
2021/04/10 06:28:00;;;;;;;18.23;11.77;;;8.70;99.90;;;;;;4158801;28;20167;-69
2021/04/10 06:30:02;;;;;;;17.38;11.13;;;8.70;99.90;;;;;;4157778;28;20132;-68
2021/04/10 06:32:03;;;;;;;16.02;10.98;;;8.70;99.90;;;;;;4163948;28;20037;-69
2021/04/10 06:34:04;;;;;;;17.55;11.35;;;8.70;99.90;;;;;;4166050;28;20026;-69
2021/04/10 06:36:05;;;;;;;15.68;10.60;;;8.80;99.90;;;;;;4162669;28;20100;-69
2021/04/10 06:38:06;;;;;;;18.27;11.50;;;8.80;99.90;;;;;;4183807;28;20033;-67
2021/04/10 06:40:07;;;;;;;14.85;11.32;;;8.80;99.90;;;;;;4167138;28;20037;-67
2021/04/10 06:42:08;;;;;;;15.95;10.75;;;8.80;99.90;;;;;;4160108;28;20032;-67
2021/04/10 06:44:09;;;;;;;20.20;12.27;;;8.80;99.90;;;;;;4162231;28;20021;-67
2021/04/10 06:46:11;;;;;;;20.73;12.18;;;8.70;99.90;;;;;;4162177;28;20041;-67
2021/04/10 06:48:13;;;;;;;17.65;11.63;;;8.70;99.90;;;;;;4161647;28;20049;-67
2021/04/10 06:50:14;;;;;;;20.13;12.75;;;8.70;99.90;;;;;;4161858;28;20036;-67
2021/04/10 06:52:16;;;;;;;20.75;12.05;;;8.70;99.90;;;;;;4161535;28;20029;-67
2021/04/10 06:54:20;;;;;;;20.13;12.57;;;8.70;99.90;;;;;;4160992;28;20036;-67
2021/04/10 06:56:26;;;;;;;19.15;12.95;;;8.70;99.90;;;;;;4178365;28;20094;-67
2021/04/10 06:58:43;;;;;;;17.80;11.93;;;8.70;99.90;;;;;;4164154;28;20037;-67
2021/04/10 07:00:44;;;;;;;17.90;12.30;;;8.80;99.90;;;;;;4161392;28;20080;-67
2021/04/10 07:02:47;;;;;;;18.95;12.13;;;8.80;99.90;;;;;;4162047;28;20034;-67
2021/04/10 07:05:07;;;;;;;22.13;12.65;;;8.90;99.90;;;;;;4159588;28;20056;-67
2021/04/10 07:07:10;;;;;;;24.77;12.55;;;8.90;99.90;;;;;;4161351;28;20420;-67
2021/04/10 07:09:12;;;;;;;20.73;12.60;;;8.90;99.90;;;;;;4159779;28;20045;-67
2021/04/10 07:11:16;;;;;;;20.83;12.05;;;8.90;99.90;;;;;;4158522;28;20038;-67
2021/04/10 07:13:18;;;;;;;23.00;12.70;;;8.90;99.90;;;;;;4161236;28;20120;-67
2021/04/10 07:15:18;;;;;;;22.63;13.23;;;8.80;99.90;;;;;;4161307;28;20033;-67
2021/04/10 07:17:19;;;;;;;20.13;13.15;;;8.80;99.90;;;;;;4176058;28;20030;-67
2021/04/10 07:19:20;;;;;;;19.02;11.70;;;8.80;99.90;;;;;;4160918;28;20238;-67
2021/04/10 07:21:26;;;;;;;21.92;13.90;;;8.90;99.90;;;;;;4161399;28;20044;-67
2021/04/10 07:23:27;;;;;;;22.58;13.40;;;8.80;99.90;;;;;;4161032;28;20081;-67
2021/04/10 07:25:31;;;;;;;20.50;12.90;;;8.90;99.90;;;;;;4161341;28;20073;-67
2021/04/10 07:27:31;;;;;;;20.50;13.30;;;8.90;99.90;;;;;;4175877;28;20119;-67
2021/04/10 07:29:33;;;;;;;27.20;13.55;;;8.90;99.90;;;;;;4162526;28;20068;-67
2021/04/10 07:31:34;;;;;;;19.30;12.50;;;8.90;99.90;;;;;;4160976;28;20037;-67
2021/04/10 07:33:37;;;;;;;21.88;13.20;;;8.80;99.90;;;;;;4161342;28;20053;-67
2021/04/10 07:35:40;;;;;;;;;;;8.90;99.90;;;;;;4161695;28;20076;-67
2021/04/10 07:37:47;;;;;;;18.75;12.90;;;8.90;99.90;;;;;;4157477;28;19925;-67
2021/04/10 07:39:48;;;;;;;23.95;14.65;;;8.90;99.90;;;;;;4158297;28;20132;-67
2021/04/10 07:42:02;;;;;;;21.33;12.88;;;9.00;99.90;;;;;;4161387;28;20030;-67
2021/04/10 07:44:03;;;;;;;21.20;13.25;;;9.00;99.90;;;;;;4160272;28;20539;-67
2021/04/10 07:46:30;;;;;;;22.08;13.77;;;9.00;99.90;;;;;;4175527;28;20029;-67
2021/04/10 07:48:30;;;;;;;18.95;11.95;;;9.00;99.90;;;;;;4156948;28;20021;-67
2021/04/10 07:50:33;;;;;;;17.00;11.88;;;9.10;99.90;;;;;;4160917;28;20033;-67
2021/04/10 07:52:34;;;;;;;;;;;9.10;99.90;;;;;;4161493;28;20354;-67
2021/04/10 07:54:42;;;;;;;20.85;12.50;;;9.20;99.90;;;;;;4159247;28;20050;-67
2021/04/10 07:56:53;;;;;;;21.80;13.65;;;9.10;99.90;;;;;;4157443;28;20029;-67
2021/04/10 07:59:01;;;;;;;22.40;13.82;;;9.10;99.90;;;;;;4158685;28;20030;-67
2021/04/10 08:01:04;;;;;;;26.92;12.40;;;9.10;99.90;;;;;;4160153;28;20041;-67
2021/04/10 08:03:05;;;;;;;23.75;13.77;;;9.10;99.90;;;;;;4159666;28;20493;-68
2021/04/10 08:05:06;;;;;;;21.42;13.90;;;9.20;99.90;;;;;;4143068;28;20084;-68
2021/04/10 08:07:12;;;;;;;24.33;14.77;;;9.20;99.90;;;;;;4174977;28;20060;-68
2021/04/10 08:09:26;;;;;;;26.30;15.90;;;9.10;99.90;;;;;;4160453;28;20041;-68
2021/04/10 08:11:31;;;;;;;25.67;17.02;;;9.00;99.90;;;;;;4159753;28;20045;-67
2021/04/10 08:13:33;;;;;;;26.13;15.32;;;9.00;99.90;;;;;;4159486;28;20052;-67
2021/04/10 08:15:33;;;;;;;31.27;16.75;;;9.10;99.90;;;;;;4168398;28;20026;-67
2021/04/10 08:17:39;;;;;;;32.85;18.38;;;9.10;99.90;;;;;;4171291;28;20551;-68
2021/04/10 08:19:40;;;;;;;24.00;16.52;;;9.10;99.90;;;;;;4164441;28;20385;-68
2021/04/10 08:21:49;;;;;;;26.20;16.08;;;9.20;99.90;;;;;;4176388;28;20029;-68
2021/04/10 08:23:50;;;;;;;26.23;15.88;;;9.20;99.90;;;;;;4158549;28;20117;-68
2021/04/10 08:25:50;;;;;;;24.40;15.93;;;9.30;99.90;;;;;;4158414;28;20532;-68
2021/04/10 08:27:51;;;;;;;27.80;17.63;;;9.30;99.90;;;;;;4160796;28;20057;-68
2021/04/10 08:29:52;;;;;;;25.60;16.52;;;9.30;99.90;;;;;;4159318;28;20053;-68
2021/04/10 08:31:54;;;;;;;35.95;18.83;;;9.30;99.90;;;;;;4168095;28;20131;-68
2021/04/10 08:33:55;;;;;;;33.42;18.20;;;9.20;99.90;;;;;;4159847;28;20365;-68
2021/04/10 08:35:57;;;;;;;31.77;18.35;;;9.30;99.90;;;;;;4175143;28;20039;-67
2021/04/10 08:38:00;;;;;;;30.73;17.95;;;9.30;99.90;;;;;;4160389;28;20033;-67
2021/04/10 08:40:02;;;;;;;31.10;19.38;;;9.30;99.90;;;;;;4164172;28;20029;-67
2021/04/10 08:42:04;;;;;;;32.60;19.40;;;9.20;99.90;;;;;;4164658;28;20103;-67
2021/04/10 08:44:07;;;;;;;27.52;17.65;;;9.30;99.90;;;;;;4171915;28;20116;-67
2021/04/10 08:46:10;;;;;;;;;;;9.30;99.90;;;;;;4172914;28;20041;-67
2021/04/10 08:48:11;;;;;;;;;;;9.30;99.90;;;;;;4162749;28;20004;-67
2021/04/10 08:50:12;;;;;;;26.70;17.15;;;9.40;99.90;;;;;;4162734;28;19917;-67
2021/04/10 08:52:19;;;;;;;30.10;19.10;;;9.40;99.90;;;;;;4160291;28;20113;-67
2021/04/10 08:54:21;;;;;;;33.65;18.95;;;9.40;99.90;;;;;;4157948;28;20052;-67
2021/04/10 08:56:24;;;;;;;32.03;19.65;;;9.40;99.90;;;;;;4165088;28;20060;-67
2021/04/10 08:58:28;;;;;;;32.75;19.92;;;9.40;99.90;;;;;;4164940;28;20112;-66
2021/04/10 09:00:30;;;;;;;32.30;19.58;;;9.40;99.90;;;;;;4182076;28;20500;-67
2021/04/10 09:02:31;;;;;;;31.83;19.27;;;9.40;99.90;;;;;;4170029;28;20058;-66
2021/04/10 09:04:55;;;;;;;32.20;18.85;;;9.50;99.90;;;;;;4165930;28;20663;-67
2021/04/10 09:06:55;;;;;;;32.95;19.25;;;9.50;99.90;;;;;;4160342;28;20456;-67
2021/04/10 09:09:11;;;;;;;36.17;20.90;;;9.50;99.90;;;;;;4163020;28;20026;-66
2021/04/10 09:11:20;;;;;;;30.17;19.08;;;9.50;99.90;;;;;;4160734;28;20685;-66
2021/04/10 09:13:20;;;;;;;34.67;20.15;;;9.60;99.90;;;;;;4166191;28;20028;-66
2021/04/10 09:15:25;;;;;;;34.05;20.85;;;9.60;99.90;;;;;;4163352;28;20037;-66
2021/04/10 09:18:00;;;;;;;37.03;22.65;;;9.50;99.90;;;;;;4165742;28;20037;-66
2021/04/10 09:20:01;;;;;;;41.47;23.27;;;9.50;99.90;;;;;;4164080;28;20052;-66
2021/04/10 09:22:03;;;;;;;39.20;22.83;;;9.50;99.90;;;;;;4169601;28;20063;-66
2021/04/10 09:24:21;;;;;;;;;;;9.50;99.90;;;;;;4160080;28;20036;-66
2021/04/10 09:26:21;;;;;;;41.70;25.60;;;9.50;99.90;;;;;;4159995;28;20007;-66
2021/04/10 09:28:22;;;;;;;44.15;24.30;;;9.60;99.90;;;;;;4160253;28;20559;-66
2021/04/10 09:30:38;;;;;;;41.20;24.00;;;9.70;99.90;;;;;;4165995;28;20163;-66
2021/04/10 09:32:44;;;;;;;48.85;28.23;;;9.70;99.90;;;;;;4165527;28;20087;-66
2021/04/10 09:34:55;;;;;;;40.00;24.70;;;9.70;99.90;;;;;;4166158;28;20045;-66
2021/04/10 09:36:56;;;;;;;43.92;25.13;;;9.70;99.90;;;;;;4167125;28;20033;-66
2021/04/10 09:38:56;;;;;;;48.60;26.23;;;9.70;99.90;;;;;;4167854;28;20120;-66
2021/04/10 09:40:57;;;;;;;42.58;25.10;;;9.80;99.90;;;;;;4171639;28;20025;-66
2021/04/10 09:43:00;;;;;;;42.25;25.00;;;9.80;99.90;;;;;;4154281;28;20086;-66
2021/04/10 09:45:23;;;;;;;41.75;26.38;;;9.80;99.90;;;;;;4159649;28;20056;-66
2021/04/10 09:47:24;;;;;;;54.63;32.63;;;9.80;99.90;;;;;;4151801;28;20037;-66
2021/04/10 09:49:37;;;;;;;56.55;32.92;;;9.80;99.90;;;;;;4160476;28;20592;-66
2021/04/10 09:51:41;;;;;;;51.60;31.25;;;9.70;99.90;;;;;;4157721;28;20404;-66
2021/04/10 09:53:46;;;;;;;49.17;28.10;;;9.70;99.90;;;;;;4164465;28;20041;-66
2021/04/10 09:55:49;;;;;;;43.38;24.73;;;9.80;99.90;;;;;;4169829;28;20037;-66
2021/04/10 09:57:58;;;;;;;45.05;26.63;;;9.80;99.90;;;;;;4177503;28;20151;-66
2021/04/10 09:59:58;;;;;;;50.13;28.38;;;9.80;99.90;;;;;;4153170;28;20049;-66
2021/04/10 10:01:59;;;;;;;53.30;29.75;;;9.80;99.90;;;;;;4159840;28;20049;-66
2021/04/10 10:04:12;;;;;;;52.20;30.30;;;9.80;99.90;;;;;;4163161;28;20034;-66
2021/04/10 10:06:20;;;;;;;57.70;35.20;;;9.80;99.90;;;;;;4185938;28;20116;-66
2021/04/10 10:08:23;;;;;;;60.85;34.65;;;9.70;99.90;;;;;;4163190;28;20041;-66
2021/04/10 10:10:30;;;;;;;60.08;32.88;;;9.70;99.90;;;;;;4167745;28;20032;-66
2021/04/10 10:12:30;;;;;;;46.60;28.95;;;9.80;99.90;;;;;;4172944;28;20416;-66
2021/04/10 10:14:47;;;;;;;48.10;29.67;;;9.80;99.90;;;;;;4160121;28;20041;-66
2021/04/10 10:16:47;;;;;;;51.92;30.83;;;9.80;99.90;;;;;;4189203;28;20048;-66
2021/04/10 10:18:48;;;;;;;50.83;29.50;;;9.80;99.90;;;;;;4160103;28;20049;-66
2021/04/10 10:20:59;;;;;;;49.33;29.63;;;9.90;99.90;;;;;;4165453;28;20041;-66
2021/04/10 10:23:16;;;;;;;50.72;29.80;;;9.90;99.90;;;;;;4173640;28;20035;-66
2021/04/10 10:25:17;;;;;;;47.72;27.95;;;9.90;99.90;;;;;;4190174;28;20427;-66
2021/04/10 10:27:18;;;;;;;52.92;31.02;;;9.90;99.90;;;;;;4161586;28;20041;-66
2021/04/10 10:29:19;;;;;;;57.00;31.80;;;9.90;99.90;;;;;;4177875;28;20029;-66
2021/04/10 10:31:24;;;;;;;51.22;31.55;;;9.80;99.90;;;;;;4159464;28;20519;-66
2021/04/10 10:33:25;;;;;;;47.78;27.80;;;9.70;99.90;;;;;;4191926;28;20405;-66
2021/04/10 10:35:26;;;;;;;50.40;29.58;;;9.80;99.90;;;;;;4174159;28;20041;-66
2021/04/10 10:37:26;;;;;;;56.70;31.35;;;9.80;99.90;;;;;;4167360;28;20049;-66